Time;durP1;ratioP1;P1;durP2;ratioP2;P2;SDS_P1;SDS_P2;PMS_P1;PMS_P2;Temp;Humidity;BMP_temperature;BMP_pressure;BME280_temperature;BME280_humidity;BME280_pressure;Samples;Min_cycle;Max_cycle;Signal;HPM_P1;HPM_P2
2020/12/21 00:03:40;;;;;;;15.23;6.03;;;;;;;2.78;100.00;95825.63;10493765;28;20502;-75
2020/12/21 00:08:41;;;;;;;9.50;5.20;;;;;;;2.78;100.00;95820.34;10494532;28;20036;-75
2020/12/21 00:13:44;;;;;;;9.80;5.38;;;;;;;2.72;100.00;95827.25;10493940;28;20044;-75
2020/12/21 00:18:44;;;;;;;11.88;6.05;;;;;;;2.74;100.00;95819.88;10493763;28;20052;-75
2020/12/21 00:23:44;;;;;;;11.00;4.87;;;;;;;2.69;100.00;95832.13;10494124;28;20033;-75
2020/12/21 00:28:45;;;;;;;12.30;5.82;;;;;;;2.74;100.00;95832.34;10494134;28;20031;-76
2020/12/21 00:33:45;;;;;;;11.67;5.37;;;;;;;2.75;100.00;95828.69;10493274;28;20199;-75
2020/12/21 00:38:46;;;;;;;12.10;6.50;;;;;;;2.77;100.00;95839.09;10493364;28;20033;-75
2020/12/21 00:43:47;;;;;;;10.95;6.43;;;;;;;2.81;100.00;95838.50;10475112;28;20036;-75
2020/12/21 00:48:48;;;;;;;14.18;5.60;;;;;;;2.83;100.00;95841.81;10492322;28;20035;-75
2020/12/21 00:53:49;;;;;;;13.70;5.50;;;;;;;2.86;100.00;95841.41;10508164;28;20397;-75
2020/12/21 00:58:50;;;;;;;14.85;5.80;;;;;;;2.90;100.00;95840.00;10492488;28;20479;-75
2020/12/21 01:03:50;;;;;;;12.90;5.80;;;;;;;2.86;100.00;95843.22;10492025;28;20115;-76
2020/12/21 01:08:51;;;;;;;14.87;5.70;;;;;;;2.93;100.00;95835.28;10491332;28;20036;-75
2020/12/21 01:13:51;;;;;;;12.38;6.03;;;;;;;2.85;100.00;95838.94;10491458;28;20146;-75
2020/12/21 01:18:52;;;;;;;12.57;4.90;;;;;;;2.85;100.00;95842.41;10491107;28;20745;-75
2020/12/21 01:23:55;;;;;;;11.65;5.95;;;;;;;2.86;100.00;95833.44;10491013;28;20370;-75
2020/12/21 01:28:55;;;;;;;14.23;6.90;;;;;;;2.85;100.00;95830.97;10491551;28;20036;-75
2020/12/21 01:33:56;;;;;;;15.13;6.30;;;;;;;2.71;100.00;95830.91;10490460;28;20783;-75
2020/12/21 01:38:56;;;;;;;14.97;5.97;;;;;;;2.79;100.00;95837.91;10490485;28;20025;-75
2020/12/21 01:43:57;;;;;;;12.23;5.37;;;;;;;2.73;100.00;95830.72;10490686;28;20030;-75
2020/12/21 01:48:57;;;;;;;15.07;6.38;;;;;;;2.78;100.00;95833.59;10490027;28;20282;-76
2020/12/21 01:53:58;;;;;;;12.68;5.90;;;;;;;2.59;100.00;95839.63;10490258;28;20373;-73
2020/12/21 01:58:59;;;;;;;12.88;6.00;;;;;;;2.61;100.00;95832.28;10490228;28;20071;-75
2020/12/21 02:03:59;;;;;;;12.90;5.88;;;;;;;2.56;100.00;95825.72;10489444;28;20099;-74
2020/12/21 02:09:00;;;;;;;15.48;6.97;;;;;;;2.70;100.00;95823.16;10489534;28;20081;-74
2020/12/21 02:14:00;;;;;;;11.73;5.77;;;;;;;2.73;100.00;95818.28;10489381;28;20040;-74
2020/12/21 02:19:01;;;;;;;12.17;6.00;;;;;;;2.68;100.00;95820.69;10488875;28;20060;-73
2020/12/21 02:24:01;;;;;;;10.57;5.57;;;;;;;2.70;100.00;95820.50;10488064;28;20282;-74
2020/12/21 02:29:01;;;;;;;12.77;5.83;;;;;;;2.72;100.00;95823.75;10488526;28;20113;-74
2020/12/21 02:34:02;;;;;;;15.95;6.78;;;;;;;2.68;100.00;95819.84;10488779;28;20302;-74
2020/12/21 02:39:03;;;;;;;10.43;5.25;;;;;;;2.68;100.00;95812.72;10488550;28;20067;-74
2020/12/21 02:44:03;;;;;;;11.25;5.28;;;;;;;2.62;100.00;95812.69;10488379;28;20024;-74
2020/12/21 02:49:04;;;;;;;13.23;5.87;;;;;;;2.55;100.00;95821.44;10488517;28;20043;-74
2020/12/21 02:54:04;;;;;;;13.75;6.35;;;;;;;2.59;100.00;95815.75;10487873;28;20424;-74
2020/12/21 02:59:05;;;;;;;11.65;5.78;;;;;;;2.66;100.00;95808.63;10487808;28;20166;-74
2020/12/21 03:04:05;;;;;;;12.90;5.90;;;;;;;2.51;100.00;95814.06;10488163;28;20032;-74
2020/12/21 03:09:05;;;;;;;15.77;7.03;;;;;;;2.33;100.00;95817.22;10488125;28;20403;-74
2020/12/21 03:14:06;;;;;;;14.25;6.03;;;;;;;2.44;100.00;95807.91;10488233;28;20482;-74
2020/12/21 03:19:06;;;;;;;12.53;6.43;;;;;;;2.50;100.00;95820.41;10487817;28;20051;-75
2020/12/21 03:24:06;;;;;;;17.23;6.13;;;;;;;2.50;100.00;95828.34;10487959;28;20036;-74
2020/12/21 03:29:07;;;;;;;17.57;6.93;;;;;;;2.26;100.00;95827.78;10487080;28;20503;-75
2020/12/21 03:34:07;;;;;;;16.00;7.68;;;;;;;2.38;100.00;95820.09;10490917;28;20484;-75
2020/12/21 03:39:08;;;;;;;14.80;6.80;;;;;;;2.60;100.00;95820.03;10477545;28;20037;-75
2020/12/21 03:44:08;;;;;;;15.07;6.20;;;;;;;2.70;100.00;95812.53;10494878;28;20028;-75
2020/12/21 03:49:08;;;;;;;13.57;5.97;;;;;;;2.70;100.00;95816.00;10495159;28;20178;-75
2020/12/21 03:54:10;;;;;;;16.63;7.60;;;;;;;2.71;100.00;95811.53;10494450;28;20892;-75
2020/12/21 03:59:11;;;;;;;13.50;5.88;;;;;;;2.76;100.00;95811.72;10494486;28;20032;-75
2020/12/21 04:04:11;;;;;;;15.02;7.05;;;;;;;2.78;100.00;95815.03;10494894;28;20028;-75
2020/12/21 04:09:12;;;;;;;14.30;6.60;;;;;;;2.69;100.00;95817.03;10510511;28;20032;-75
2020/12/21 04:14:12;;;;;;;19.17;8.20;;;;;;;2.80;100.00;95814.81;10476245;28;20312;-75
2020/12/21 04:19:13;;;;;;;15.13;7.57;;;;;;;2.83;100.00;95815.25;10493973;28;20298;-74
2020/12/21 04:24:13;;;;;;;16.17;7.67;;;;;;;2.87;100.00;95803.19;10493804;28;20029;-75
2020/12/21 04:29:14;;;;;;;13.77;7.00;;;;;;;2.79;100.00;95807.88;10493673;28;20317;-75
2020/12/21 04:34:14;;;;;;;18.40;7.75;;;;;;;2.84;100.00;95798.28;10492842;28;20033;-75
2020/12/21 04:39:14;;;;;;;18.23;7.80;;;;;;;2.89;100.00;95806.47;10493116;28;20029;-74
2020/12/21 04:44:15;;;;;;;17.60;7.57;;;;;;;2.75;100.00;95804.81;10492942;28;20031;-74
2020/12/21 04:49:16;;;;;;;17.52;7.70;;;;;;;2.90;100.00;95807.28;10491920;28;20028;-74
2020/12/21 04:54:18;;;;;;;13.43;6.60;;;;;;;2.86;100.00;95803.41;10492359;28;20112;-74
2020/12/21 04:59:19;;;;;;;19.30;8.35;;;;;;;2.94;100.00;95802.41;10492201;28;20064;-75
2020/12/21 05:04:19;;;;;;;18.53;8.03;;;;;;;2.87;100.00;95797.88;10491745;28;20177;-75
2020/12/21 05:09:24;;;;;;;16.67;7.40;;;;;;;2.70;100.00;95804.56;10491787;28;20032;-75
2020/12/21 05:14:35;;;;;;;19.15;6.63;;;;;;;2.89;100.00;95824.25;10491281;28;20150;-73
2020/12/21 05:19:36;;;;;;;15.77;7.40;;;;;;;3.01;100.00;95820.00;10491188;28;20159;-73
2020/12/21 05:24:37;;;;;;;17.15;7.25;;;;;;;3.03;100.00;95817.97;10527951;28;20028;-74
2020/12/21 05:29:37;;;;;;;16.42;8.07;;;;;;;3.11;100.00;95824.94;10511886;28;20478;-73
2020/12/21 05:34:38;;;;;;;18.93;8.27;;;;;;;3.07;100.00;95824.53;10490349;28;20430;-74
2020/12/21 05:39:49;;;;;;;16.58;7.15;;;;;;;3.12;100.00;95818.63;10489936;28;20288;-73
2020/12/21 05:45:01;;;;;;;16.40;8.50;;;;;;;3.15;100.00;95828.03;10490061;28;20060;-73
2020/12/21 05:50:05;;;;;;;21.02;8.25;;;;;;;3.20;100.00;95823.75;10489833;28;20090;-73
2020/12/21 05:55:10;;;;;;;18.63;7.90;;;;;;;3.21;100.00;95833.38;10505470;28;20040;-73
2020/12/21 06:00:14;;;;;;;18.98;9.05;;;;;;;3.12;100.00;95829.25;10531423;28;20058;-73
2020/12/21 06:05:41;;;;;;;25.17;10.90;;;;;;;3.08;100.00;95828.00;10530790;28;20036;-73
2020/12/21 06:10:43;;;;;;;23.48;10.40;;;;;;;3.01;100.00;95827.16;10530504;28;20069;-73
2020/12/21 06:15:45;;;;;;;26.42;10.55;;;;;;;3.15;100.00;95831.50;10530302;28;20040;-73
2020/12/21 06:20:45;;;;;;;29.50;10.93;;;;;;;3.17;100.00;95826.00;10530171;28;20068;-74
2020/12/21 06:25:45;;;;;;;22.63;9.83;;;;;;;3.16;100.00;95830.47;10529884;28;20115;-73
2020/12/21 06:30:46;;;;;;;28.17;10.10;;;;;;;3.25;100.00;95823.16;10517352;28;20785;-73
2020/12/21 06:35:46;;;;;;;21.63;9.53;;;;;;;3.26;100.00;95830.09;10487931;28;20796;-73
2020/12/21 06:40:47;;;;;;;23.17;10.15;;;;;;;3.00;100.00;95833.47;10487744;28;20290;-73
2020/12/21 06:45:47;;;;;;;27.30;12.57;;;;;;;3.16;100.00;95830.47;10490013;28;20120;-73
2020/12/21 06:50:48;;;;;;;25.58;11.82;;;;;;;3.19;100.00;95830.06;10529312;28;20036;-73
2020/12/21 06:55:48;;;;;;;30.50;10.98;;;;;;;3.16;100.00;95825.16;10529433;28;20028;-73
2020/12/21 07:00:52;;;;;;;27.25;10.60;;;;;;;3.24;100.00;95835.63;10511163;28;20032;-73
2020/12/21 07:05:58;;;;;;;29.52;11.65;;;;;;;3.19;100.00;95838.03;10529721;28;20036;-73
2020/12/21 07:10:59;;;;;;;27.77;13.07;;;;;;;3.22;100.00;95839.50;10535391;28;20051;-73
2020/12/21 07:16:02;;;;;;;36.35;12.10;;;;;;;3.42;100.00;95835.06;10537402;28;20058;-73
2020/12/21 07:21:11;;;;;;;29.02;12.18;;;;;;;3.44;100.00;95839.38;10536994;28;20885;-74
2020/12/21 07:26:14;;;;;;;32.78;13.98;;;;;;;3.48;100.00;95849.38;10535783;28;20039;-74
2020/12/21 07:31:16;;;;;;;31.75;14.60;;;;;;;3.54;100.00;95845.91;10516144;28;20032;-75
2020/12/21 07:36:18;;;;;;;32.28;13.45;;;;;;;3.50;100.00;95851.84;10494141;28;20116;-76
2020/12/21 07:41:23;;;;;;;33.83;17.00;;;;;;;3.63;100.00;95846.56;10477218;28;20044;-76
2020/12/21 07:46:25;;;;;;;31.73;12.95;;;;;;;3.59;100.00;95843.47;10499652;28;20108;-75
2020/12/21 07:51:26;;;;;;;33.50;13.27;;;;;;;3.76;100.00;95845.75;10494807;28;20059;-75
2020/12/21 07:56:26;;;;;;;32.05;14.65;;;;;;;3.76;100.00;95849.22;10496326;28;20043;-76
2020/12/21 08:01:27;;;;;;;29.20;13.23;;;;;;;3.59;100.00;95842.66;10502471;28;20036;-75
2020/12/21 08:06:28;;;;;;;36.03;15.23;;;;;;;3.58;100.00;95844.47;10494038;28;20294;-76
2020/12/21 08:11:31;;;;;;;34.57;13.83;;;;;;;3.75;100.00;95838.78;10493351;28;20439;-75
2020/12/21 08:16:31;;;;;;;34.30;12.38;;;;;;;3.83;100.00;95851.09;10493751;28;20302;-76
2020/12/21 08:21:32;;;;;;;29.70;14.43;;;;;;;3.83;100.00;95851.09;10503721;28;20037;-76
2020/12/21 08:26:36;;;;;;;31.98;12.60;;;;;;;3.90;100.00;95854.56;10520093;28;20038;-73
2020/12/21 08:31:44;;;;;;;28.85;11.38;;;;;;;3.96;100.00;95847.63;10535251;28;20028;-73
2020/12/21 08:36:45;;;;;;;26.98;11.30;;;;;;;4.02;100.00;95847.63;10533862;28;20039;-74
2020/12/21 08:41:55;;;;;;;35.80;13.77;;;;;;;4.05;100.00;95841.88;10530868;28;20558;-74
2020/12/21 08:47:00;;;;;;;32.08;13.65;;;;;;;3.93;100.00;95844.34;10528211;28;20418;-73
2020/12/21 08:52:05;;;;;;;24.83;12.20;;;;;;;3.78;100.00;95835.72;10527454;28;20092;-73
2020/12/21 08:57:06;;;;;;;28.83;12.93;;;;;;;4.00;100.00;95838.22;10524172;28;20525;-73
2020/12/21 09:02:06;;;;;;;30.17;13.68;;;;;;;4.07;100.00;95828.38;10528935;28;20024;-72
2020/12/21 09:07:06;;;;;;;29.83;13.18;;;;;;;4.15;100.00;95830.84;10530120;28;20096;-73
2020/12/21 09:12:07;;;;;;;29.60;11.73;;;;;;;4.16;100.00;95826.31;10522950;28;20111;-74
2020/12/21 09:17:08;;;;;;;18.23;9.73;;;;;;;4.25;100.00;95820.59;10493906;28;20143;-74
2020/12/21 09:22:09;;;;;;;17.15;8.40;;;;;;;4.23;100.00;95819.19;10498048;28;20090;-74
2020/12/21 09:27:09;;;;;;;24.43;10.73;;;;;;;4.32;100.00;95820.59;10489603;28;20531;-74
2020/12/21 09:32:10;;;;;;;31.35;13.20;;;;;;;4.27;100.00;95815.09;10471274;28;20503;-74
2020/12/21 09:37:13;;;;;;;21.70;10.52;;;;;;;4.37;100.00;95812.00;10489754;28;20025;-74
2020/12/21 09:42:14;;;;;;;29.50;12.63;;;;;;;4.43;100.00;95811.16;10489364;28;20036;-74
2020/12/21 09:47:14;;;;;;;29.47;12.80;;;;;;;4.60;100.00;95804.38;10489528;28;20028;-74
2020/12/21 09:52:15;;;;;;;39.80;13.10;;;;;;;4.66;100.00;95799.22;10489029;28;20845;-74
2020/12/21 09:57:15;;;;;;;28.90;13.73;;;;;;;4.65;100.00;95794.91;10488295;28;20119;-74
2020/12/21 10:02:15;;;;;;;24.80;11.33;;;;;;;4.77;100.00;95788.75;10488621;28;20028;-74
2020/12/21 10:07:16;;;;;;;28.80;12.10;;;;;;;4.74;100.00;95780.34;10488530;28;20032;-74
2020/12/21 10:12:16;;;;;;;22.67;10.10;;;;;;;4.55;100.00;95787.38;10487522;28;21050;-75
2020/12/21 10:17:17;;;;;;;26.55;12.02;;;;;;;4.40;100.00;95785.75;10469032;28;20318;-75
2020/12/21 10:22:17;;;;;;;22.10;11.30;;;;;;;4.41;100.00;95782.09;10487777;28;20454;-75
2020/12/21 10:27:18;;;;;;;22.02;11.15;;;;;;;4.37;100.00;95780.06;10487752;28;20036;-74
2020/12/21 10:32:18;;;;;;;27.10;12.68;;;;;;;4.47;100.00;95771.66;10487771;28;20479;-75
2020/12/21 10:37:18;;;;;;;36.50;14.03;;;;;;;4.43;100.00;95765.91;10491399;28;20044;-74
2020/12/21 10:42:20;;;;;;;28.13;12.37;;;;;;;4.32;100.00;95762.03;10501627;28;20046;-74
2020/12/21 10:47:21;;;;;;;33.45;12.98;;;;;;;4.28;100.00;95763.47;10511483;28;20661;-73
2020/12/21 10:52:33;;;;;;;28.75;13.63;;;;;;;4.38;100.00;95755.06;10504013;28;20040;-77
2020/12/21 10:57:33;;;;;;;35.03;13.23;;;;;;;4.51;100.00;95744.38;10502571;28;20068;-75
2020/12/21 11:02:34;;;;;;;28.40;11.75;;;;;;;4.67;100.00;95747.59;10528971;28;20107;-74
2020/12/21 11:07:34;;;;;;;21.53;12.13;;;;;;;4.61;100.00;95755.41;10528388;28;20031;-74
2020/12/21 11:12:35;;;;;;;29.13;12.23;;;;;;;4.68;100.00;95741.25;10510452;28;20123;-73
2020/12/21 11:17:35;;;;;;;27.95;13.40;;;;;;;4.78;100.00;95755.75;10528017;28;20297;-73
2020/12/21 11:22:36;;;;;;;31.37;15.27;;;;;;;4.84;100.00;95755.94;10525680;28;20475;-73
2020/12/21 11:27:37;;;;;;;30.77;14.50;;;;;;;4.78;100.00;95760.25;10486237;28;20497;-73
2020/12/21 11:32:37;;;;;;;26.45;13.32;;;;;;;4.77;100.00;95753.28;10486447;28;20036;-73
2020/12/21 11:37:38;;;;;;;33.92;17.00;;;;;;;4.42;100.00;95761.59;10517334;28;20467;-74
2020/12/21 11:42:38;;;;;;;29.17;14.57;;;;;;;4.65;100.00;95744.31;10505259;28;20036;-73
2020/12/21 11:47:39;;;;;;;30.15;14.77;;;;;;;4.56;100.00;95739.25;10524368;28;20044;-73
2020/12/21 11:52:41;;;;;;;28.80;14.50;;;;;;;4.41;100.00;95728.03;10499240;28;20858;-73
2020/12/21 11:57:42;;;;;;;35.85;14.63;;;;;;;4.48;100.00;95714.69;10501884;28;20664;-72
2020/12/21 12:02:42;;;;;;;32.42;16.50;;;;;;;4.57;100.00;95714.25;10503435;28;20047;-73
2020/12/21 12:07:42;;;;;;;32.93;14.60;;;;;;;4.71;100.00;95706.22;10492870;28;20037;-72
2020/12/21 12:12:45;;;;;;;32.60;15.05;;;;;;;4.75;100.00;95718.09;10474507;28;20354;-73
2020/12/21 12:17:45;;;;;;;36.60;17.60;;;;;;;4.56;100.00;95714.47;10504345;28;20046;-73
2020/12/21 12:22:46;;;;;;;31.00;16.10;;;;;;;4.51;100.00;95723.09;10492764;28;20036;-73
2020/12/21 12:27:46;;;;;;;37.20;16.10;;;;;;;4.50;100.00;95721.44;10492009;28;20287;-73
2020/12/21 12:32:46;;;;;;;36.40;15.03;;;;;;;4.39;100.00;95724.75;10492346;28;20465;-73
2020/12/21 12:37:47;;;;;;;37.30;15.75;;;;;;;4.53;100.00;95718.34;10491974;28;20866;-73
2020/12/21 12:42:47;;;;;;;33.53;16.20;;;;;;;4.54;100.00;95727.19;10491625;28;20042;-73
2020/12/21 12:47:48;;;;;;;31.73;14.50;;;;;;;4.47;100.00;95729.06;10491693;28;20056;-72
2020/12/21 12:52:48;;;;;;;39.05;16.65;;;;;;;4.41;100.00;95723.53;10491481;28;20040;-72
2020/12/21 12:57:48;;;;;;;35.10;14.97;;;;;;;4.51;100.00;95717.78;10491338;28;20870;-73
2020/12/21 13:02:49;;;;;;;35.47;15.33;;;;;;;4.56;100.00;95725.94;10491349;28;20286;-72
2020/12/21 13:07:49;;;;;;;34.43;16.17;;;;;;;4.57;100.00;95727.56;10490285;28;20032;-72
2020/12/21 13:12:50;;;;;;;34.97;16.58;;;;;;;4.60;100.00;95729.81;10490414;28;20089;-72
2020/12/21 13:17:50;;;;;;;33.22;15.32;;;;;;;4.56;100.00;95730.44;10490227;28;20510;-72
2020/12/21 13:22:50;;;;;;;33.50;15.37;;;;;;;4.59;100.00;95738.00;10490446;28;20029;-72
2020/12/21 13:27:51;;;;;;;32.40;15.67;;;;;;;4.51;100.00;95735.56;10490553;28;20567;-73
2020/12/21 13:32:51;;;;;;;29.67;15.27;;;;;;;4.59;100.00;95735.34;10489976;28;20352;-72
2020/12/21 13:37:51;;;;;;;37.87;15.77;;;;;;;4.50;100.00;95734.75;10490508;28;20033;-72
2020/12/21 13:42:52;;;;;;;32.90;17.52;;;;;;;4.56;100.00;95725.94;10489813;28;20035;-72
2020/12/21 13:47:52;;;;;;;42.97;16.47;;;;;;;4.42;100.00;95737.66;10489156;28;20929;-72
2020/12/21 13:52:53;;;;;;;38.53;17.50;;;;;;;4.32;100.00;95729.28;10471267;28;20287;-72
2020/12/21 13:57:53;;;;;;;29.87;15.00;;;;;;;4.43;100.00;95747.28;10488795;28;20396;-72
2020/12/21 14:02:53;;;;;;;36.25;16.45;;;;;;;4.39;100.00;95730.09;10488587;28;20415;-72
2020/12/21 14:07:54;;;;;;;37.05;14.93;;;;;;;4.25;100.00;95730.13;10488226;28;20085;-72
2020/12/21 14:12:54;;;;;;;32.80;15.63;;;;;;;4.33;100.00;95737.06;10488700;28;20077;-71
2020/12/21 14:17:54;;;;;;;37.40;17.87;;;;;;;4.27;100.00;95738.72;10487447;28;20295;-71
2020/12/21 14:22:55;;;;;;;36.23;16.20;;;;;;;4.39;100.00;95738.88;10487978;28;20294;-73
2020/12/21 14:27:55;;;;;;;32.90;15.17;;;;;;;4.36;100.00;95739.31;10487466;28;20035;-72
2020/12/21 14:32:56;;;;;;;43.42;17.00;;;;;;;4.24;100.00;95738.31;10487625;28;20060;-73
2020/12/21 14:37:56;;;;;;;39.17;17.30;;;;;;;4.32;100.00;95735.41;10469109;28;20384;-72
2020/12/21 14:42:56;;;;;;;37.60;17.53;;;;;;;4.17;100.00;95725.03;10497558;28;20281;-73
2020/12/21 14:47:57;;;;;;;36.77;17.90;;;;;;;4.26;100.00;95726.44;10519055;28;20032;-73
2020/12/21 14:52:58;;;;;;;37.70;17.05;;;;;;;4.26;100.00;95736.28;10494865;28;20285;-72
2020/12/21 14:57:58;;;;;;;32.60;16.75;;;;;;;4.23;100.00;95736.69;10529065;28;20028;-73
2020/12/21 15:02:58;;;;;;;34.30;16.40;;;;;;;4.11;100.00;95733.84;10521708;28;20115;-72
2020/12/21 15:07:59;;;;;;;43.13;17.77;;;;;;;4.10;100.00;95732.19;10492047;28;20305;-72
2020/12/21 15:13:05;;;;;;;38.58;18.00;;;;;;;4.20;100.00;95727.28;10507166;28;20122;-74
2020/12/21 15:18:05;;;;;;;41.17;17.02;;;;;;;4.15;100.00;95724.41;10506631;28;20070;-71
2020/12/21 15:23:06;;;;;;;43.85;17.20;;;;;;;4.23;100.00;95723.38;10524274;28;20032;-72
2020/12/21 15:28:06;;;;;;;34.73;16.80;;;;;;;4.18;100.00;95734.63;10522002;28;20027;-72
2020/12/21 15:33:06;;;;;;;43.03;17.83;;;;;;;4.19;100.00;95733.63;10533708;28;20062;-73
2020/12/21 15:38:07;;;;;;;37.77;16.53;;;;;;;4.11;100.00;95725.84;10533656;28;20140;-73
2020/12/21 15:43:08;;;;;;;47.70;19.95;;;;;;;3.89;100.00;95723.44;10533512;28;20320;-72
2020/12/21 15:48:08;;;;;;;39.00;18.20;;;;;;;3.71;100.00;95728.56;10532600;28;20103;-72
2020/12/21 15:53:09;;;;;;;31.75;14.98;;;;;;;3.55;100.00;95735.13;10529940;28;20080;-72
2020/12/21 15:58:09;;;;;;;36.47;14.97;;;;;;;3.44;100.00;95725.09;10526431;28;20126;-72
2020/12/21 16:03:10;;;;;;;43.15;18.38;;;;;;;3.45;100.00;95722.22;10516783;28;20694;-71
2020/12/21 16:08:10;;;;;;;42.03;17.73;;;;;;;3.62;100.00;95721.81;10493455;28;20454;-73
2020/12/21 16:13:11;;;;;;;42.55;20.58;;;;;;;3.67;100.00;95719.34;10492858;28;20071;-73
2020/12/21 16:18:11;;;;;;;42.30;19.00;;;;;;;3.90;100.00;95727.72;10495051;28;20419;-73
2020/12/21 16:23:12;;;;;;;54.83;21.27;;;;;;;3.87;100.00;95727.34;10511675;28;20036;-72
2020/12/21 16:28:13;;;;;;;38.83;19.75;;;;;;;3.97;100.00;95732.22;10533903;28;20031;-72
2020/12/21 16:33:13;;;;;;;52.28;21.92;;;;;;;4.01;100.00;95723.63;10534761;28;20040;-72
2020/12/21 16:38:14;;;;;;;41.90;17.63;;;;;;;4.04;100.00;95725.06;10519089;28;20036;-72
2020/12/21 16:43:14;;;;;;;33.27;14.43;;;;;;;3.97;100.00;95722.41;10493142;28;20295;-72
2020/12/21 16:48:15;;;;;;;27.45;13.45;;;;;;;4.02;100.00;95722.59;10502791;28;20469;-73
2020/12/21 16:53:15;;;;;;;28.58;13.90;;;;;;;3.99;100.00;95728.34;10492262;28;20032;-72
2020/12/21 16:58:16;;;;;;;30.95;13.38;;;;;;;4.06;100.00;95737.13;10491300;28;20052;-72
2020/12/21 17:03:16;;;;;;;24.02;11.23;;;;;;;4.16;100.00;95739.38;10500284;28;20036;-73
2020/12/21 17:08:16;;;;;;;25.45;12.15;;;;;;;4.06;100.00;95737.13;10489716;28;20426;-72
2020/12/21 17:13:17;;;;;;;35.65;14.60;;;;;;;4.12;100.00;95748.78;10528848;28;20043;-73
2020/12/21 17:18:17;;;;;;;24.92;11.68;;;;;;;4.15;100.00;95740.38;10528931;28;20530;-73
2020/12/21 17:23:18;;;;;;;33.50;13.68;;;;;;;4.10;100.00;95745.50;10487920;28;20029;-71
2020/12/21 17:28:19;;;;;;;26.25;12.55;;;;;;;4.17;100.00;95748.16;10503673;28;20054;-71
2020/12/21 17:33:20;;;;;;;28.20;13.13;;;;;;;4.24;100.00;95744.47;10525793;28;20036;-72
2020/12/21 17:38:20;;;;;;;27.75;13.65;;;;;;;4.33;100.00;95746.91;10525521;28;20024;-72
2020/12/21 17:43:21;;;;;;;41.05;15.65;;;;;;;4.27;100.00;95746.69;10523526;28;20803;-72
2020/12/21 17:48:22;;;;;;;43.53;19.23;;;;;;;4.27;100.00;95753.88;10504153;28;20721;-72
2020/12/21 17:53:22;;;;;;;52.33;22.05;;;;;;;4.09;100.00;95762.50;10527684;28;20088;-72
2020/12/21 17:58:23;;;;;;;79.28;31.02;;;;;;;4.12;100.00;95762.09;10521098;28;20058;-72
2020/12/21 18:03:26;;;;;;;68.38;28.60;;;;;;;4.11;100.00;95776.41;10511707;28;20048;-72
2020/12/21 18:08:26;;;;;;;63.58;25.13;;;;;;;4.13;100.00;95771.72;10528117;28;20032;-72
2020/12/21 18:13:27;;;;;;;49.47;21.60;;;;;;;4.13;100.00;95774.38;10518336;28;20034;-72
2020/12/21 18:18:27;;;;;;;55.15;24.85;;;;;;;4.07;100.00;95769.84;10505089;28;20047;-72
2020/12/21 18:23:28;;;;;;;52.58;23.55;;;;;;;4.05;100.00;95767.41;10537308;28;20040;-72
2020/12/21 18:28:28;;;;;;;57.83;24.33;;;;;;;3.90;100.00;95764.16;10511457;28;20119;-72
2020/12/21 18:33:30;;;;;;;51.30;21.67;;;;;;;3.89;100.00;95754.53;10517205;28;20685;-72
2020/12/21 18:38:31;;;;;;;47.72;22.33;;;;;;;3.99;100.00;95752.28;10525016;28;20046;-72
2020/12/21 18:43:31;;;;;;;71.85;29.52;;;;;;;3.96;100.00;95755.34;10523945;28;20040;-72
2020/12/21 18:48:32;;;;;;;73.55;29.10;;;;;;;3.93;100.00;95766.38;10502050;28;20028;-72
2020/12/21 18:53:34;;;;;;;70.25;30.83;;;;;;;4.02;100.00;95767.00;10503537;28;20040;-72
2020/12/21 18:58:38;;;;;;;79.13;32.00;;;;;;;4.06;100.00;95766.38;10518858;28;20154;-72
2020/12/21 19:03:39;;;;;;;77.00;34.75;;;;;;;3.75;100.00;95778.47;10514383;28;20032;-72
2020/12/21 19:08:40;;;;;;;75.75;31.38;;;;;;;3.80;100.00;95771.72;10517824;28;20020;-72
2020/12/21 19:13:41;;;;;;;88.00;36.78;;;;;;;3.78;100.00;95763.13;10523255;28;20036;-72
2020/12/21 19:19:58;;;;;;;72.05;28.52;;;;;;;3.86;100.00;95784.19;10515251;27;20360;-72
2020/12/21 19:24:59;;;;;;;78.57;32.75;;;;;;;3.91;100.00;95787.06;10516976;28;20027;-71
2020/12/21 19:29:59;;;;;;;76.63;34.00;;;;;;;3.89;100.00;95776.63;10516442;28;20051;-72
2020/12/21 19:35:00;;;;;;;86.65;32.33;;;;;;;3.89;100.00;95776.63;10515992;28;20286;-72
2020/12/21 19:40:01;;;;;;;81.03;33.90;;;;;;;3.93;100.00;95774.38;10514545;28;20118;-71
2020/12/21 19:45:02;;;;;;;94.03;35.30;;;;;;;3.60;100.00;95769.88;10514729;28;20517;-73
2020/12/21 19:50:02;;;;;;;78.07;34.80;;;;;;;3.71;100.00;95777.25;10515846;28;20028;-71
2020/12/21 19:55:03;;;;;;;77.40;31.80;;;;;;;3.64;100.00;95776.41;10517482;28;20040;-71
2020/12/21 20:00:04;;;;;;;86.75;35.25;;;;;;;3.80;100.00;95774.38;10510829;28;20052;-71
2020/12/21 20:05:06;;;;;;;74.78;33.25;;;;;;;3.84;100.00;95781.75;10515383;28;20059;-72
2020/12/21 20:10:07;;;;;;;77.70;32.13;;;;;;;3.85;100.00;95780.72;10517540;28;20036;-72
2020/12/21 20:15:12;;;;;;;89.03;34.75;;;;;;;3.83;100.00;95779.28;10517400;28;20036;-72
2020/12/21 20:20:13;;;;;;;79.90;34.72;;;;;;;3.94;100.00;95784.00;10517576;28;20415;-72
2020/12/21 20:25:13;;;;;;;80.30;33.10;;;;;;;3.87;100.00;95783.19;10517056;28;20036;-72
2020/12/21 20:30:14;;;;;;;72.05;31.27;;;;;;;3.85;100.00;95777.22;10497967;28;20029;-71
2020/12/21 20:35:14;;;;;;;90.63;38.80;;;;;;;3.73;100.00;95769.06;10491882;28;20457;-72
2020/12/21 20:40:15;;;;;;;79.22;36.58;;;;;;;3.63;100.00;95758.84;10491912;28;20401;-72
2020/12/21 20:45:16;;;;;;;80.40;31.58;;;;;;;3.70;100.00;95758.84;10479890;28;20036;-71
2020/12/21 20:50:16;;;;;;;81.47;35.13;;;;;;;3.67;100.00;95761.88;10449089;28;20037;-72
2020/12/21 20:55:23;;;;;;;93.15;37.40;;;;;;;3.50;100.00;95761.47;10448144;28;20025;-72
2020/12/21 21:00:23;;;;;;;94.50;37.00;;;;;;;3.49;100.00;95757.16;10447882;28;20566;-71
2020/12/21 21:05:24;;;;;;;90.18;38.92;;;;;;;3.39;100.00;95755.75;10468369;28;20123;-71
2020/12/21 21:10:24;;;;;;;76.03;34.72;;;;;;;3.63;100.00;95745.53;10480034;28;20415;-71
2020/12/21 21:15:24;;;;;;;82.72;35.92;;;;;;;3.73;100.00;95751.25;10475108;28;20044;-71
2020/12/21 21:20:25;;;;;;;90.83;37.00;;;;;;;3.68;100.00;95750.25;10481937;28;20040;-71
2020/12/21 21:25:25;;;;;;;88.40;37.47;;;;;;;3.74;100.00;95744.09;10474741;28;20603;-72
2020/12/21 21:30:27;;;;;;;82.75;35.00;;;;;;;3.73;100.00;95742.47;10488554;28;20047;-71
2020/12/21 21:35:27;;;;;;;82.90;34.00;;;;;;;3.89;100.00;95739.41;10488169;28;20036;-71
2020/12/21 21:40:27;;;;;;;86.00;33.50;;;;;;;3.73;100.00;95740.63;10488399;28;20033;-71
2020/12/21 21:45:28;;;;;;;83.33;33.20;;;;;;;3.65;100.00;95735.50;10487024;28;20039;-72
2020/12/21 21:50:28;;;;;;;77.45;32.00;;;;;;;3.88;100.00;95735.09;10463858;28;20036;-72
2020/12/21 21:55:28;;;;;;;79.10;29.70;;;;;;;3.94;100.00;95733.47;10448562;28;20029;-71
2020/12/21 22:00:29;;;;;;;93.90;34.33;;;;;;;3.89;100.00;95726.09;10448392;28;20706;-71
2020/12/21 22:05:29;;;;;;;90.17;34.33;;;;;;;3.88;100.00;95716.50;10448641;28;20752;-71
2020/12/21 22:10:30;;;;;;;91.20;35.03;;;;;;;3.81;100.00;95710.38;10448099;28;20283;-75
2020/12/21 22:15:30;;;;;;;83.47;32.65;;;;;;;3.68;100.00;95719.16;10448258;28;20041;-75
2020/12/21 22:20:30;;;;;;;80.75;31.63;;;;;;;3.82;100.00;95709.31;10448667;28;20416;-75
2020/12/21 22:25:31;;;;;;;92.30;36.00;;;;;;;3.76;100.00;95704.84;10447922;28;20075;-77
2020/12/21 22:30:31;;;;;;;95.37;36.77;;;;;;;3.87;100.00;95704.22;10447851;28;20291;-77
2020/12/21 22:35:31;;;;;;;92.17;37.67;;;;;;;3.91;100.00;95701.97;10447840;28;20291;-75
2020/12/21 22:40:34;;;;;;;96.60;36.47;;;;;;;3.89;100.00;95702.19;10447994;28;20379;-74
2020/12/21 22:45:35;;;;;;;90.68;39.13;;;;;;;3.78;100.00;95704.63;10447635;28;20793;-74
2020/12/21 22:50:35;;;;;;;83.53;35.42;;;;;;;3.84;100.00;95698.50;10447520;28;20033;-77
2020/12/21 22:55:35;;;;;;;76.53;34.43;;;;;;;3.73;100.00;95700.75;10447205;28;20043;-77